createdAt,value
2018-03-19T00:02:20.191Z,-4.00
2018-03-19T00:04:48.519Z,-4.10
2018-03-19T00:07:16.088Z,-4.10
2018-03-19T00:09:43.738Z,-4.00
2018-03-19T00:12:11.304Z,-4.10
2018-03-19T00:14:38.827Z,-4.10
2018-03-19T00:17:07.139Z,-4.20
2018-03-19T00:19:34.663Z,-4.20
2018-03-19T00:22:02.977Z,-4.20
2018-03-19T00:24:30.542Z,-4.20
2018-03-19T00:26:58.086Z,-4.20
2018-03-19T00:29:25.642Z,-4.30
2018-03-19T00:31:53.937Z,-4.20
2018-03-19T00:34:21.454Z,-4.20
2018-03-19T00:36:49.757Z,-4.20
2018-03-19T00:39:17.278Z,-4.20
2018-03-19T00:41:44.840Z,-4.20
2018-03-19T00:44:12.454Z,-4.30
2018-03-19T00:46:39.977Z,-4.30
2018-03-19T00:49:08.282Z,-4.30
2018-03-19T00:51:35.807Z,-4.30
2018-03-19T00:54:04.110Z,-4.30
2018-03-19T00:56:31.636Z,-4.40
2018-03-19T00:58:59.179Z,-4.40
2018-03-19T01:01:26.697Z,-4.40
2018-03-19T01:03:54.233Z,-4.40
2018-03-19T01:06:22.524Z,-4.50
2018-03-19T01:08:50.080Z,-4.50
2018-03-19T01:11:17.613Z,-4.60
2018-03-19T01:13:45.141Z,-4.60
2018-03-19T01:16:12.677Z,-4.60
2018-03-19T01:18:40.254Z,-4.70
2018-03-19T01:21:07.809Z,-4.70
2018-03-19T01:23:35.367Z,-4.80
2018-03-19T01:26:02.928Z,-4.80
2018-03-19T01:28:30.446Z,-4.80
2018-03-19T01:30:58.770Z,-4.90
2018-03-19T01:33:26.286Z,-5.00
2018-03-19T01:35:54.590Z,-5.00
2018-03-19T01:38:22.113Z,-5.00
2018-03-19T01:40:49.653Z,-5.10
2018-03-19T01:43:17.183Z,-5.10
2018-03-19T01:45:44.708Z,-5.20
2018-03-19T01:48:13.020Z,-5.30
2018-03-19T01:50:40.545Z,-5.30
2018-03-19T01:53:08.849Z,-5.40
2018-03-19T01:55:36.369Z,-5.40
2018-03-19T01:58:03.905Z,-5.50
2018-03-19T02:00:31.420Z,-5.50
2018-03-19T02:02:58.956Z,-5.50
2018-03-19T02:05:27.245Z,-5.60
2018-03-19T02:07:55.557Z,-5.60
2018-03-19T02:10:23.075Z,-5.60
2018-03-19T02:12:51.396Z,-5.70
2018-03-19T02:15:18.923Z,-5.70
2018-03-19T02:17:46.460Z,-5.70
2018-03-19T02:20:13.983Z,-5.80
2018-03-19T02:22:41.622Z,-5.90
2018-03-19T02:25:09.138Z,-5.90
2018-03-19T02:27:38.184Z,-6.00
2018-03-19T02:30:05.713Z,-6.00
2018-03-19T02:32:34.030Z,-6.00
2018-03-19T02:35:01.585Z,-6.00
2018-03-19T02:37:29.110Z,-6.10
2018-03-19T02:39:57.424Z,-6.10
2018-03-19T02:42:24.951Z,-6.10
2018-03-19T02:44:52.521Z,-6.10
2018-03-19T02:47:20.101Z,-6.10
2018-03-19T02:49:47.642Z,-6.10
2018-03-19T02:52:15.171Z,-6.00
2018-03-19T02:54:43.479Z,-6.00
2018-03-19T02:57:11.789Z,-6.10
2018-03-19T02:59:39.351Z,-6.10
2018-03-19T03:02:06.880Z,-6.10
2018-03-19T03:04:34.407Z,-6.10
2018-03-19T03:07:02.739Z,-6.10
2018-03-19T03:09:30.268Z,-6.10
2018-03-19T03:11:57.860Z,-6.10
2018-03-19T03:14:25.421Z,-6.00
2018-03-19T03:16:52.937Z,-6.00
2018-03-19T03:19:21.228Z,-5.80
2018-03-19T03:21:48.765Z,-5.80
2018-03-19T03:24:16.285Z,-5.70
2018-03-19T03:26:43.826Z,-5.70
2018-03-19T03:29:11.386Z,-5.60
2018-03-19T03:31:38.903Z,-5.60
2018-03-19T03:34:07.237Z,-5.40
2018-03-19T03:36:34.785Z,-5.50
2018-03-19T03:39:02.322Z,-5.40
2018-03-19T03:41:29.844Z,-5.40
2018-03-19T03:43:57.382Z,-5.40
2018-03-19T03:46:24.903Z,-5.30
2018-03-19T03:48:52.449Z,-5.30
2018-03-19T03:51:20.734Z,-5.20
2018-03-19T03:53:49.042Z,-5.20
2018-03-19T03:56:16.558Z,-5.20
2018-03-19T03:58:44.864Z,-5.20
2018-03-19T04:01:12.434Z,-5.20
2018-03-19T04:03:39.968Z,-5.20
2018-03-19T04:06:08.274Z,-5.10
2018-03-19T04:08:35.838Z,-5.10
2018-03-19T04:11:03.358Z,-5.10
2018-03-19T04:13:31.659Z,-5.10
2018-03-19T04:15:59.181Z,-5.20
2018-03-19T04:18:26.721Z,-5.10
2018-03-19T04:20:54.238Z,-5.10
2018-03-19T04:23:21.774Z,-5.10
2018-03-19T04:25:50.061Z,-5.10
2018-03-19T04:28:17.599Z,-5.10
2018-03-19T04:30:45.119Z,-5.10
2018-03-19T04:33:12.666Z,-5.10
2018-03-19T04:35:40.189Z,-5.10
2018-03-19T04:38:08.503Z,-5.00
2018-03-19T04:40:36.034Z,-5.10
2018-03-19T04:43:04.325Z,-5.00
2018-03-19T04:45:31.877Z,-5.10
2018-03-19T04:47:59.466Z,-5.10
2018-03-19T04:50:27.008Z,-5.00
2018-03-19T04:52:54.541Z,-5.10
2018-03-19T04:55:22.859Z,-5.20
2018-03-19T04:57:50.446Z,-5.20
2018-03-19T05:00:17.935Z,-5.10
2018-03-19T05:02:46.227Z,-5.10
2018-03-19T05:05:14.533Z,-5.20
2018-03-19T05:07:42.051Z,-5.20
2018-03-19T05:10:10.374Z,-5.20
2018-03-19T05:12:37.889Z,-5.20
2018-03-19T05:15:06.173Z,-5.30
2018-03-19T05:17:34.612Z,-5.30
2018-03-19T05:20:02.133Z,-5.30
2018-03-19T05:22:29.674Z,-5.20
2018-03-19T05:24:57.969Z,-5.30
2018-03-19T05:27:25.504Z,-5.30
2018-03-19T05:29:53.789Z,-5.20
2018-03-19T05:32:22.092Z,-5.30
2018-03-19T05:34:49.611Z,-5.30
2018-03-19T05:37:17.154Z,-5.30
2018-03-19T05:39:44.683Z,-5.20
2018-03-19T05:42:12.240Z,-5.20
2018-03-19T05:44:39.766Z,-5.20
2018-03-19T05:47:08.088Z,-5.20
2018-03-19T05:49:35.630Z,-5.30
2018-03-19T05:52:03.202Z,-5.20
2018-03-19T05:54:30.743Z,-5.20
2018-03-19T05:56:58.261Z,-5.20
2018-03-19T05:59:25.882Z,-5.20
2018-03-19T06:01:53.398Z,-5.10
2018-03-19T06:04:21.726Z,-5.00
2018-03-19T06:06:49.284Z,-5.10
2018-03-19T06:09:16.821Z,-5.10
2018-03-19T06:11:44.342Z,-5.00
2018-03-19T06:14:11.887Z,-5.00
2018-03-19T06:16:39.415Z,-4.90
2018-03-19T06:19:06.959Z,-4.80
2018-03-19T06:21:34.537Z,-4.70
2018-03-19T06:24:02.086Z,-4.70
2018-03-19T06:26:29.606Z,-4.70
2018-03-19T06:28:57.135Z,-4.60
2018-03-19T06:31:24.693Z,-4.50
2018-03-19T06:33:52.214Z,-4.60
2018-03-19T06:36:20.527Z,-4.50
2018-03-19T06:38:48.045Z,-4.50
2018-03-19T06:41:16.473Z,-4.30
2018-03-19T06:43:44.004Z,-4.30
2018-03-19T06:46:11.546Z,-4.40
2018-03-19T06:48:39.828Z,-4.50
2018-03-19T06:51:08.131Z,-4.30
2018-03-19T06:53:35.658Z,-4.30
2018-03-19T06:56:03.961Z,-4.00
2018-03-19T06:58:31.488Z,-4.00
2018-03-19T07:00:59.799Z,-4.10
2018-03-19T07:03:27.326Z,-4.10
2018-03-19T07:05:55.614Z,-3.80
2018-03-19T07:08:23.923Z,-3.70
2018-03-19T07:10:51.449Z,-3.70
2018-03-19T07:13:19.758Z,-3.20
2018-03-19T07:15:47.281Z,-3.30
2018-03-19T07:18:15.587Z,-2.70
2018-03-19T07:20:43.102Z,-2.80
2018-03-19T07:23:10.719Z,-2.50
2018-03-19T07:25:38.237Z,-2.00
2018-03-19T07:28:06.544Z,-1.50
2018-03-19T07:30:34.070Z,-1.50
2018-03-19T07:33:02.397Z,-1.30
2018-03-19T07:35:29.923Z,-1.40
2018-03-19T07:37:58.215Z,-2.10
2018-03-19T07:40:25.791Z,-2.10
2018-03-19T07:42:53.317Z,-2.10
2018-03-19T07:45:21.626Z,-1.10
2018-03-19T07:47:49.147Z,-1.10
2018-03-19T07:50:17.449Z,0.20
2018-03-19T07:52:45.032Z,0.10
2018-03-19T07:55:12.569Z,-0.10
2018-03-19T07:57:40.090Z,-0.60
2018-03-19T08:00:07.625Z,-1.30
2018-03-19T08:02:35.150Z,-1.40
2018-03-19T08:05:02.693Z,-1.70
2018-03-19T08:07:30.980Z,-1.00
2018-03-19T08:09:58.523Z,-1.00
2018-03-19T08:12:26.842Z,0.70
2018-03-19T08:14:54.378Z,0.60
2018-03-19T08:17:21.965Z,1.30
2018-03-19T08:19:49.456Z,1.60
2018-03-19T08:22:16.975Z,2.20
2018-03-19T08:24:44.535Z,2.20
2018-03-19T08:27:12.057Z,1.20
2018-03-19T08:29:40.373Z,1.20
2018-03-19T08:32:07.907Z,1.10
2018-03-19T08:34:36.186Z,2.80
2018-03-19T08:37:04.589Z,2.80
2018-03-19T08:39:32.102Z,2.70
2018-03-19T08:41:59.635Z,3.10
2018-03-19T08:44:27.169Z,3.40
2018-03-19T08:46:54.706Z,3.20
2018-03-19T08:49:23.003Z,3.30
2018-03-19T08:51:50.571Z,3.20
2018-03-19T08:54:18.092Z,3.60
2018-03-19T08:56:46.399Z,4.10
2018-03-19T08:59:13.967Z,4.00
2018-03-19T09:01:41.517Z,4.30
2018-03-19T09:04:09.046Z,4.50
2018-03-19T09:06:37.354Z,5.40
2018-03-19T09:09:05.966Z,5.40
2018-03-19T09:11:33.602Z,5.70
2018-03-19T09:14:01.130Z,6.00
2018-03-19T09:16:29.437Z,6.00
2018-03-19T09:18:57.763Z,5.90
2018-03-19T09:21:25.387Z,6.20
2018-03-19T09:23:52.902Z,6.40
2018-03-19T09:26:21.190Z,7.20
2018-03-19T09:28:49.498Z,7.20
2018-03-19T09:31:17.077Z,7.20
2018-03-19T09:33:45.346Z,6.30
2018-03-19T09:36:12.873Z,6.20
2018-03-19T09:38:41.179Z,4.40
2018-03-19T09:41:08.850Z,4.40
2018-03-19T09:43:36.391Z,4.60
2018-03-19T09:46:03.913Z,5.50
2018-03-19T09:48:31.455Z,6.50
2018-03-19T09:50:58.980Z,6.90
2018-03-19T09:53:26.525Z,7.10
2018-03-19T09:55:54.058Z,7.50
2018-03-19T09:58:21.609Z,7.70
2018-03-19T10:00:49.130Z,7.90
2018-03-19T10:03:16.656Z,8.20
2018-03-19T10:05:44.971Z,7.70
2018-03-19T10:08:12.491Z,7.70
2018-03-19T10:10:40.794Z,7.80
2018-03-19T10:13:08.388Z,7.80
2018-03-19T10:15:35.938Z,7.90
2018-03-19T10:18:03.462Z,8.30
2018-03-19T10:20:31.775Z,8.60
2018-03-19T10:22:59.300Z,8.50
2018-03-19T10:25:27.613Z,8.50
2018-03-19T10:27:55.139Z,8.40
2018-03-19T10:30:23.425Z,9.10
2018-03-19T10:32:51.838Z,9.30
2018-03-19T10:35:19.359Z,9.30
2018-03-19T10:37:47.662Z,9.80
2018-03-19T10:40:15.242Z,9.70
2018-03-19T10:42:42.787Z,10.60
2018-03-19T10:45:10.310Z,10.70
2018-03-19T10:47:38.621Z,9.70
2018-03-19T10:50:06.141Z,9.70
2018-03-19T10:52:34.458Z,10.20
2018-03-19T10:55:02.038Z,10.10
2018-03-19T10:57:29.574Z,9.80
2018-03-19T10:59:57.873Z,10.00
2018-03-19T11:02:28.274Z,10.00
2018-03-19T11:05:02.307Z,9.50
2018-03-19T11:07:35.606Z,9.50
2018-03-19T11:10:03.131Z,9.00
2018-03-19T11:12:30.651Z,9.00
2018-03-19T11:14:58.183Z,9.10
2018-03-19T11:17:25.703Z,8.60
2018-03-19T11:19:54.002Z,9.10
2018-03-19T11:22:22.285Z,9.70
2018-03-19T11:24:49.870Z,9.60
2018-03-19T11:27:17.435Z,10.20
2018-03-19T11:29:44.987Z,10.00
2018-03-19T11:32:12.510Z,9.10
2018-03-19T11:34:40.811Z,8.40
2018-03-19T11:37:08.387Z,8.40
2018-03-19T11:39:35.927Z,8.20
2018-03-19T11:42:03.445Z,8.40
2018-03-19T11:44:30.991Z,8.30
2018-03-19T11:46:58.507Z,8.40
2018-03-19T11:49:26.023Z,7.70
2018-03-19T11:51:53.558Z,7.90
2018-03-19T11:54:21.069Z,8.70
2018-03-19T11:56:49.374Z,8.90
2018-03-19T11:59:16.953Z,8.90
2018-03-19T12:01:44.489Z,8.70
2018-03-19T12:04:12.007Z,8.90
2018-03-19T12:06:39.554Z,8.60
2018-03-19T12:09:07.070Z,8.20
2018-03-19T12:11:34.610Z,7.80
2018-03-19T12:14:02.129Z,7.00
2018-03-19T12:16:29.777Z,6.00
2018-03-19T12:18:57.298Z,5.00
2018-03-19T12:21:25.798Z,6.20
2018-03-19T12:23:53.468Z,6.20
2018-03-19T12:26:21.041Z,6.50
2018-03-19T12:28:48.603Z,6.50
2018-03-19T12:31:16.329Z,6.00
2018-03-19T12:33:44.617Z,5.60
2018-03-19T12:36:12.906Z,6.00
2018-03-19T12:38:40.446Z,6.00
2018-03-19T12:41:08.766Z,6.00
2018-03-19T12:43:36.301Z,6.00
2018-03-19T12:46:03.822Z,5.90
2018-03-19T12:48:31.445Z,5.40
2018-03-19T12:50:58.984Z,5.20
2018-03-19T12:53:27.279Z,5.10
2018-03-19T12:55:54.892Z,5.00
2018-03-19T12:58:22.425Z,5.00
2018-03-19T13:00:49.947Z,5.20
2018-03-19T13:03:17.476Z,4.90
2018-03-19T13:05:45.090Z,5.00
2018-03-19T13:08:12.653Z,5.10
2018-03-19T13:10:40.194Z,5.30
2018-03-19T13:13:07.777Z,5.60
2018-03-19T13:15:35.310Z,5.50
2018-03-19T13:18:02.893Z,5.50
2018-03-19T13:20:30.440Z,5.40
2018-03-19T13:22:58.018Z,4.90
2018-03-19T13:25:25.564Z,4.60
2018-03-19T13:27:53.145Z,4.60
2018-03-19T13:30:20.663Z,4.50
2018-03-19T13:32:49.033Z,3.90
2018-03-19T13:35:17.322Z,4.00
2018-03-19T13:37:45.627Z,4.30
2018-03-19T13:40:13.150Z,4.20
2018-03-19T13:42:41.478Z,4.30
2018-03-19T13:45:08.989Z,4.30
2018-03-19T13:47:36.608Z,3.90
2018-03-19T13:50:04.133Z,3.90
2018-03-19T13:52:32.537Z,4.00
2018-03-19T13:55:00.063Z,4.00
2018-03-19T13:57:28.386Z,4.00
2018-03-19T13:59:55.898Z,4.00
2018-03-19T14:02:23.451Z,4.10
2018-03-19T14:04:50.988Z,3.90
2018-03-19T14:07:18.530Z,3.90
2018-03-19T14:09:46.097Z,3.70
2018-03-19T14:12:13.639Z,3.70
2018-03-19T14:14:41.173Z,3.70
2018-03-19T14:17:09.538Z,3.80
2018-03-19T14:19:37.083Z,3.80
2018-03-19T14:22:04.621Z,3.80
2018-03-19T14:24:32.179Z,3.70
2018-03-19T14:26:59.693Z,3.50
2018-03-19T14:29:28.029Z,2.90
2018-03-19T14:31:55.550Z,2.90
2018-03-19T14:34:23.102Z,2.80
2018-03-19T14:36:51.398Z,2.90
2018-03-19T14:39:18.942Z,2.90
2018-03-19T14:41:47.261Z,2.80
2018-03-19T14:44:14.801Z,2.70
2018-03-19T14:46:42.331Z,2.90
2018-03-19T14:49:09.884Z,3.00
2018-03-19T14:51:37.413Z,3.00
2018-03-19T14:54:04.957Z,2.80
2018-03-19T14:56:32.535Z,2.70
2018-03-19T14:59:00.081Z,2.60
2018-03-19T15:01:27.618Z,2.50
2018-03-19T15:03:55.221Z,2.60
2018-03-19T15:06:22.754Z,2.70
2018-03-19T15:08:50.294Z,2.80
2018-03-19T15:11:17.900Z,2.80
2018-03-19T15:13:45.457Z,2.50
2018-03-19T15:16:13.022Z,2.10
2018-03-19T15:18:40.582Z,1.90
2018-03-19T15:21:08.105Z,1.90
2018-03-19T15:23:36.402Z,2.30
2018-03-19T15:26:04.041Z,2.30
2018-03-19T15:28:32.283Z,2.40
2018-03-19T15:30:59.843Z,2.30
2018-03-19T15:33:27.365Z,2.20
2018-03-19T15:35:54.914Z,2.00
2018-03-19T15:38:22.506Z,1.80
2018-03-19T15:40:50.076Z,1.80
2018-03-19T15:43:17.602Z,1.80
2018-03-19T15:45:45.145Z,1.80
2018-03-19T15:48:13.465Z,1.80
2018-03-19T15:50:41.012Z,1.80
2018-03-19T15:53:08.586Z,1.80
2018-03-19T15:55:36.881Z,1.80
2018-03-19T15:58:04.402Z,1.70
2018-03-19T16:00:31.925Z,1.70
2018-03-19T16:02:59.473Z,1.50
2018-03-19T16:05:27.003Z,1.30
2018-03-19T16:07:54.547Z,1.30
2018-03-19T16:10:22.139Z,1.40
2018-03-19T16:12:49.685Z,1.40
2018-03-19T16:15:17.209Z,1.30
2018-03-19T16:17:45.530Z,1.10
2018-03-19T16:20:13.069Z,1.10
2018-03-19T16:22:40.614Z,1.20
2018-03-19T16:25:08.908Z,1.20
2018-03-19T16:27:36.445Z,1.20
2018-03-19T16:30:03.970Z,1.20
2018-03-19T16:32:31.531Z,1.30
2018-03-19T16:34:59.055Z,1.30
2018-03-19T16:37:26.593Z,1.20
2018-03-19T16:39:54.115Z,1.10
2018-03-19T16:42:21.682Z,0.80
2018-03-19T16:44:49.197Z,0.60
2018-03-19T16:47:17.483Z,0.20
2018-03-19T16:49:45.066Z,0.20
2018-03-19T16:52:12.595Z,0.00
2018-03-19T16:54:41.006Z,-0.30
2018-03-19T16:57:08.523Z,-0.40
2018-03-19T16:59:36.830Z,-0.40
2018-03-19T17:02:04.358Z,-0.50
2018-03-19T17:04:31.904Z,-0.50
2018-03-19T17:06:59.431Z,-0.60
2018-03-19T17:09:26.969Z,-0.60
2018-03-19T17:11:54.489Z,-0.60
2018-03-19T17:14:22.117Z,-0.70
2018-03-19T17:16:49.639Z,-0.70
2018-03-19T17:19:17.957Z,-0.80
2018-03-19T17:21:45.478Z,-0.80
2018-03-19T17:24:13.786Z,-0.90
2018-03-19T17:26:41.325Z,-1.00
2018-03-19T17:29:08.864Z,-1.00
2018-03-19T17:31:37.175Z,-1.20
2018-03-19T17:34:04.699Z,-1.20
2018-03-19T17:36:32.322Z,-1.20
2018-03-19T17:38:59.844Z,-1.30
2018-03-19T17:41:28.154Z,-1.40
2018-03-19T17:43:55.724Z,-1.40
2018-03-19T17:46:23.262Z,-1.40
2018-03-19T17:48:50.786Z,-1.40
2018-03-19T17:51:18.328Z,-1.40
2018-03-19T17:53:45.845Z,-1.40
2018-03-19T17:56:13.392Z,-1.40
2018-03-19T17:58:41.697Z,-1.50
2018-03-19T18:01:09.244Z,-1.50
2018-03-19T18:03:36.768Z,-1.50
2018-03-19T18:06:04.315Z,-1.50
2018-03-19T18:08:31.838Z,-1.60
2018-03-19T18:10:59.382Z,-1.60
2018-03-19T18:13:26.907Z,-1.60
2018-03-19T18:15:54.434Z,-1.70
2018-03-19T18:21:00.897Z,-1.70
2018-03-19T18:23:28.430Z,-1.70
2018-03-19T18:25:56.728Z,-1.70
2018-03-19T18:28:24.318Z,-1.70
2018-03-19T18:30:51.847Z,-1.60
2018-03-19T18:33:20.260Z,-1.60
2018-03-19T18:35:47.786Z,-1.60
2018-03-19T18:38:16.094Z,-1.70
2018-03-19T18:40:43.619Z,-1.70
2018-03-19T18:43:11.926Z,-1.80
2018-03-19T18:45:39.451Z,-1.90
2018-03-19T18:48:07.061Z,-1.80
2018-03-19T18:50:34.581Z,-1.80
2018-03-19T18:53:02.892Z,-1.90
2018-03-19T18:55:30.423Z,-1.90
2018-03-19T18:57:58.733Z,-2.10
2018-03-19T19:00:26.254Z,-2.10
2018-03-19T19:02:53.790Z,-2.10
2018-03-19T19:05:21.315Z,-2.20
2018-03-19T19:07:48.895Z,-2.20
2018-03-19T19:10:16.423Z,-2.20
2018-03-19T19:12:44.735Z,-2.30
2018-03-19T19:15:12.266Z,-2.30
2018-03-19T19:17:39.812Z,-2.40
2018-03-19T19:20:08.128Z,-2.50
2018-03-19T19:22:35.698Z,-2.50
2018-03-19T19:25:03.253Z,-2.50
2018-03-19T19:27:30.778Z,-2.50
2018-03-19T19:29:59.087Z,-2.50
2018-03-19T19:32:26.610Z,-2.50
2018-03-19T19:34:54.919Z,-2.70
2018-03-19T19:37:22.446Z,-2.70
2018-03-19T19:39:50.755Z,-2.70
2018-03-19T19:42:18.342Z,-2.70
2018-03-19T19:44:45.886Z,-2.70
2018-03-19T19:47:13.410Z,-2.70
2018-03-19T19:49:41.738Z,-2.80
2018-03-19T19:52:09.261Z,-2.80
2018-03-19T19:54:37.584Z,-2.70
2018-03-19T19:57:05.120Z,-2.80
2018-03-19T19:59:32.648Z,-2.80
2018-03-19T20:02:00.266Z,-2.90
2018-03-19T20:04:27.793Z,-2.90
2018-03-19T20:06:56.098Z,-3.00
2018-03-19T20:09:23.625Z,-3.00
2018-03-19T20:11:51.931Z,-3.00
2018-03-19T20:14:19.457Z,-3.10
2018-03-19T20:16:47.765Z,-3.00
2018-03-19T20:19:15.291Z,-3.00
2018-03-19T20:21:42.837Z,-3.00
2018-03-19T20:24:10.366Z,-3.00
2018-03-19T20:26:37.910Z,-3.10
2018-03-19T20:29:05.442Z,-3.00
2018-03-19T20:31:33.734Z,-3.10
2018-03-19T20:34:02.158Z,-3.10
2018-03-19T20:36:29.688Z,-3.20
2018-03-19T20:38:57.243Z,-3.20
2018-03-19T20:41:25.536Z,-3.20
2018-03-19T20:43:53.120Z,-3.30
2018-03-19T20:46:20.641Z,-3.30
2018-03-19T20:48:48.947Z,-3.40
2018-03-19T20:51:16.476Z,-3.40
2018-03-19T20:53:44.090Z,-3.30
2018-03-19T20:56:11.614Z,-3.40
2018-03-19T20:58:39.913Z,-3.40
2018-03-19T21:01:07.436Z,-3.40
2018-03-19T21:03:34.974Z,-3.40
2018-03-19T21:06:02.498Z,-3.50
2018-03-19T21:08:30.046Z,-3.50
2018-03-19T21:10:58.358Z,-3.60
2018-03-19T21:13:25.905Z,-3.60
2018-03-19T21:15:53.421Z,-3.60
2018-03-19T21:18:21.041Z,-3.70
2018-03-19T21:20:48.602Z,-3.70
2018-03-19T21:23:16.153Z,-3.70
2018-03-19T21:25:43.677Z,-3.70
2018-03-19T21:28:11.273Z,-3.70
2018-03-19T21:30:39.542Z,-3.70
2018-03-19T21:33:07.854Z,-3.80
2018-03-19T21:35:35.418Z,-3.80
2018-03-19T21:38:02.973Z,-3.80
2018-03-19T21:40:30.522Z,-3.80
2018-03-19T21:42:58.045Z,-3.80
2018-03-19T21:45:25.584Z,-3.90
2018-03-19T21:47:53.107Z,-3.80
2018-03-19T21:50:20.655Z,-3.80
2018-03-19T21:52:48.177Z,-3.80
2018-03-19T21:55:15.718Z,-3.80
2018-03-19T21:57:43.234Z,-3.80
2018-03-19T22:00:11.544Z,-3.90
2018-03-19T22:02:39.065Z,-3.90
2018-03-19T22:05:07.379Z,-4.10
2018-03-19T22:07:34.899Z,-4.10
2018-03-19T22:10:03.310Z,-4.30
2018-03-19T22:12:30.830Z,-4.30
2018-03-19T22:14:58.373Z,-4.30
2018-03-19T22:17:25.898Z,-4.40
2018-03-19T22:19:53.445Z,-4.40
2018-03-19T22:22:20.972Z,-4.30
2018-03-19T22:24:48.508Z,-4.40
2018-03-19T22:27:16.027Z,-4.40
2018-03-19T22:29:43.610Z,-4.40
2018-03-19T22:32:11.130Z,-4.30
2018-03-19T22:34:39.446Z,-4.40
2018-03-19T22:37:07.014Z,-4.40
2018-03-19T22:39:34.530Z,-4.40
2018-03-19T22:42:02.082Z,-4.50
2018-03-19T22:44:29.606Z,-4.50
2018-03-19T22:46:57.151Z,-4.50
2018-03-19T22:49:24.674Z,-4.60
2018-03-19T22:51:52.222Z,-4.60
2018-03-19T22:54:19.749Z,-4.60
2018-03-19T22:56:47.306Z,-4.60
2018-03-19T22:59:14.837Z,-4.60
2018-03-19T23:01:43.251Z,-4.50
2018-03-19T23:04:10.769Z,-4.50
2018-03-19T23:06:39.079Z,-4.60
2018-03-19T23:09:06.598Z,-4.60
2018-03-19T23:11:34.133Z,-4.60
2018-03-19T23:14:01.661Z,-4.60
2018-03-19T23:16:29.205Z,-4.70
2018-03-19T23:18:57.490Z,-4.80
2018-03-19T23:21:25.091Z,-4.80
2018-03-19T23:23:52.620Z,-4.80
2018-03-19T23:26:20.143Z,-4.90
2018-03-19T23:28:47.690Z,-5.00
2018-03-19T23:31:15.214Z,-5.10
2018-03-19T23:33:42.760Z,-5.10
2018-03-19T23:36:10.343Z,-5.20
2018-03-19T23:38:37.884Z,-5.20
2018-03-19T23:41:05.406Z,-5.20
2018-03-19T23:43:32.946Z,-5.30
2018-03-19T23:46:00.469Z,-5.30
2018-03-19T23:48:28.011Z,-5.30
2018-03-19T23:50:56.298Z,-5.40
2018-03-19T23:53:23.838Z,-5.40
2018-03-19T23:55:51.357Z,-5.40
2018-03-19T23:58:18.911Z,-5.50
